createdAt,value
2018-03-02T00:00:33.987Z,6.80
2018-03-02T00:01:34.017Z,6.70
2018-03-02T00:02:33.895Z,6.40
2018-03-02T00:03:33.849Z,6.00
2018-03-02T00:04:33.908Z,6.30
2018-03-02T00:05:33.839Z,6.20
2018-03-02T00:06:33.734Z,5.70
2018-03-02T00:07:33.726Z,6.80
2018-03-02T00:08:33.651Z,6.80
2018-03-02T00:09:33.637Z,6.30
2018-03-02T00:10:33.600Z,6.90
2018-03-02T00:11:33.553Z,6.60
2018-03-02T00:12:33.516Z,6.30
2018-03-02T00:13:33.541Z,5.40
2018-03-02T00:14:33.475Z,8.20
2018-03-02T00:15:33.466Z,6.20
2018-03-02T00:16:33.401Z,7.00
2018-03-02T00:17:33.344Z,6.30
2018-03-02T00:18:33.410Z,6.70
2018-03-02T00:19:33.266Z,6.60
2018-03-02T00:20:33.234Z,6.00
2018-03-02T00:21:33.220Z,6.60
2018-03-02T00:22:33.214Z,7.60
2018-03-02T00:23:33.117Z,6.60
2018-03-02T00:24:33.086Z,7.00
2018-03-02T00:25:33.090Z,6.40
2018-03-02T00:26:33.021Z,6.80
2018-03-02T00:27:33.011Z,6.70
2018-03-02T00:28:32.962Z,6.80
2018-03-02T00:29:33.813Z,6.40
2018-03-02T00:30:32.902Z,6.50
2018-03-02T00:31:32.861Z,6.70
2018-03-02T00:32:32.777Z,6.40
2018-03-02T00:33:32.877Z,7.50
2018-03-02T00:34:32.693Z,5.30
2018-03-02T00:35:32.682Z,7.10
2018-03-02T00:36:32.626Z,7.30
2018-03-02T00:37:32.751Z,7.50
2018-03-02T00:38:32.592Z,7.50
2018-03-02T00:39:32.547Z,7.10
2018-03-02T00:40:32.502Z,7.30
2018-03-02T00:41:32.457Z,7.40
2018-03-02T00:42:32.442Z,7.20
2018-03-02T00:43:32.576Z,7.60
2018-03-02T00:44:32.356Z,6.30
2018-03-02T00:45:32.349Z,6.50
2018-03-02T00:46:32.269Z,7.20
2018-03-02T00:47:32.248Z,7.10
2018-03-02T00:48:32.194Z,8.20
2018-03-02T00:49:32.155Z,6.70
2018-03-02T00:50:32.115Z,6.90
2018-03-02T00:51:32.111Z,7.00
2018-03-02T00:52:32.034Z,7.30
2018-03-02T00:53:32.031Z,6.80
2018-03-02T00:54:31.990Z,7.30
2018-03-02T00:55:31.965Z,7.00
2018-03-02T00:56:31.914Z,8.40
2018-03-02T00:57:31.910Z,7.90
2018-03-02T00:58:31.827Z,7.40
2018-03-02T00:59:31.819Z,6.70
2018-03-02T01:00:31.775Z,6.90
2018-03-02T01:01:31.836Z,7.50
2018-03-02T01:02:31.728Z,7.50
2018-03-02T01:03:31.655Z,8.20
2018-03-02T01:04:31.667Z,6.40
2018-03-02T01:05:31.578Z,8.20
2018-03-02T01:06:31.567Z,8.10
2018-03-02T01:07:31.507Z,7.30
2018-03-02T01:08:31.484Z,7.30
2018-03-02T01:09:31.440Z,7.50
2018-03-02T01:10:31.395Z,7.30
2018-03-02T01:11:31.330Z,6.60
2018-03-02T01:12:31.351Z,7.20
2018-03-02T01:13:31.265Z,7.10
2018-03-02T01:14:31.260Z,6.50
2018-03-02T01:15:31.226Z,8.10
2018-03-02T01:16:31.199Z,8.10
2018-03-02T01:17:31.162Z,8.50
2018-03-02T01:18:31.095Z,7.10
2018-03-02T01:19:31.077Z,7.90
2018-03-02T01:20:31.036Z,7.70
2018-03-02T01:21:30.989Z,7.00
2018-03-02T01:22:31.003Z,7.60
2018-03-02T01:23:30.908Z,7.70
2018-03-02T01:24:30.916Z,8.60
2018-03-02T01:25:30.829Z,7.50
2018-03-02T01:26:30.829Z,7.80
2018-03-02T01:27:31.329Z,7.90
2018-03-02T01:28:30.723Z,7.20
2018-03-02T01:29:30.676Z,7.30
2018-03-02T01:30:30.658Z,7.00
2018-03-02T01:31:30.595Z,7.00
2018-03-02T01:32:30.637Z,7.50
2018-03-02T01:33:30.556Z,7.10
2018-03-02T01:34:30.549Z,6.90
2018-03-02T01:35:30.574Z,8.00
2018-03-02T01:36:30.480Z,7.30
2018-03-02T01:37:30.374Z,6.40
2018-03-02T01:38:30.345Z,7.80
2018-03-02T01:39:30.320Z,7.90
2018-03-02T01:40:30.294Z,7.30
2018-03-02T01:41:30.224Z,6.60
2018-03-02T01:42:30.238Z,7.20
2018-03-02T01:43:30.158Z,7.50
2018-03-02T01:44:30.151Z,7.60
2018-03-02T01:45:30.125Z,7.50
2018-03-02T01:46:30.088Z,8.10
2018-03-02T01:47:30.009Z,7.70
2018-03-02T01:48:30.004Z,8.40
2018-03-02T01:49:29.958Z,7.40
2018-03-02T01:50:29.899Z,7.90
2018-03-02T01:51:29.871Z,9.90
2018-03-02T01:52:29.806Z,7.80
2018-03-02T01:53:29.795Z,9.00
2018-03-02T01:54:29.783Z,8.90
2018-03-02T01:55:29.746Z,8.70
2018-03-02T01:56:29.696Z,7.80
2018-03-02T01:57:29.626Z,8.20
2018-03-02T01:58:29.611Z,8.30
2018-03-02T01:59:29.584Z,8.70
2018-03-02T02:00:29.538Z,7.90
2018-03-02T02:01:29.536Z,8.40
2018-03-02T02:02:29.480Z,7.80
2018-03-02T02:03:29.404Z,8.70
2018-03-02T02:04:29.388Z,8.90
2018-03-02T02:05:29.344Z,8.10
2018-03-02T02:06:29.308Z,8.60
2018-03-02T02:07:29.269Z,8.10
2018-03-02T02:08:29.221Z,8.60
2018-03-02T02:09:29.216Z,8.40
2018-03-02T02:10:29.160Z,9.10
2018-03-02T02:11:29.127Z,8.50
2018-03-02T02:12:29.089Z,8.80
2018-03-02T02:13:29.070Z,7.80
2018-03-02T02:14:29.005Z,9.40
2018-03-02T02:15:28.965Z,7.90
2018-03-02T02:16:28.928Z,8.60
2018-03-02T02:17:28.922Z,7.90
2018-03-02T02:18:28.850Z,8.70
2018-03-02T02:19:28.834Z,8.50
2018-03-02T02:20:28.766Z,9.40
2018-03-02T02:21:28.781Z,9.30
2018-03-02T02:22:28.720Z,7.60
2018-03-02T02:23:28.675Z,8.30
2018-03-02T02:24:28.629Z,9.70
2018-03-02T02:25:28.691Z,7.60
2018-03-02T02:26:28.562Z,10.00
2018-03-02T02:27:28.560Z,9.40
2018-03-02T02:28:28.528Z,8.50
2018-03-02T02:29:28.452Z,7.80
2018-03-02T02:30:28.421Z,8.50
2018-03-02T02:31:28.428Z,7.80
2018-03-02T02:32:28.317Z,9.50
2018-03-02T02:33:28.374Z,8.60
2018-03-02T02:34:28.281Z,8.60
2018-03-02T02:35:28.262Z,7.60
2018-03-02T02:36:28.202Z,8.80
2018-03-02T02:37:28.164Z,9.90
2018-03-02T02:38:28.122Z,10.10
2018-03-02T02:39:28.071Z,8.70
2018-03-02T02:40:28.039Z,10.30
2018-03-02T02:41:27.990Z,9.30
2018-03-02T02:42:27.945Z,8.70
2018-03-02T02:43:27.949Z,8.90
2018-03-02T02:44:27.894Z,8.60
2018-03-02T02:45:27.848Z,8.80
2018-03-02T02:46:27.812Z,9.20
2018-03-02T02:47:27.794Z,9.30
2018-03-02T02:48:27.766Z,8.70
2018-03-02T02:49:27.707Z,9.10
2018-03-02T02:50:27.683Z,9.80
2018-03-02T02:51:27.613Z,9.20
2018-03-02T02:52:27.591Z,10.50
2018-03-02T02:53:27.573Z,9.20
2018-03-02T02:54:27.504Z,8.10
2018-03-02T02:55:27.459Z,8.70
2018-03-02T02:56:27.431Z,9.70
2018-03-02T02:57:27.426Z,9.20
2018-03-02T02:58:27.388Z,8.70
2018-03-02T02:59:27.332Z,10.30
2018-03-02T03:00:27.329Z,8.40
2018-03-02T03:01:27.267Z,8.80
2018-03-02T03:02:27.245Z,9.20
2018-03-02T03:03:27.163Z,9.40
2018-03-02T03:04:27.173Z,9.30
2018-03-02T03:05:27.094Z,9.40
2018-03-02T03:06:27.097Z,8.90
2018-03-02T03:07:27.025Z,9.80
2018-03-02T03:08:26.984Z,9.30
2018-03-02T03:09:26.966Z,8.70
2018-03-02T03:10:26.914Z,9.90
2018-03-02T03:11:26.897Z,8.40
2018-03-02T03:12:26.825Z,8.90
2018-03-02T03:13:26.802Z,9.50
2018-03-02T03:14:26.766Z,10.60
2018-03-02T03:15:26.751Z,10.10
2018-03-02T03:16:26.731Z,9.30
2018-03-02T03:17:26.641Z,9.00
2018-03-02T03:18:27.330Z,9.00
2018-03-02T03:19:26.577Z,9.10
2018-03-02T03:20:26.548Z,9.30
2018-03-02T03:21:26.506Z,9.50
2018-03-02T03:22:26.492Z,8.80
2018-03-02T03:23:26.415Z,10.50
2018-03-02T03:24:26.396Z,8.60
2018-03-02T03:25:26.381Z,9.10
2018-03-02T03:26:26.337Z,9.60
2018-03-02T03:27:26.300Z,10.70
2018-03-02T03:28:27.572Z,10.20
2018-03-02T03:29:26.198Z,9.10
2018-03-02T03:30:26.182Z,9.50
2018-03-02T03:31:26.125Z,8.00
2018-03-02T03:32:26.099Z,9.50
2018-03-02T03:33:26.042Z,10.20
2018-03-02T03:34:26.011Z,10.20
2018-03-02T03:35:25.988Z,9.20
2018-03-02T03:36:25.950Z,9.30
2018-03-02T03:37:25.989Z,9.60
2018-03-02T03:38:25.876Z,8.70
2018-03-02T03:39:25.826Z,9.00
2018-03-02T03:40:25.790Z,9.80
2018-03-02T03:41:25.759Z,9.30
2018-03-02T03:42:25.697Z,9.80
2018-03-02T03:43:25.694Z,10.30
2018-03-02T03:44:25.616Z,9.10
2018-03-02T03:45:25.605Z,9.30
2018-03-02T03:46:25.578Z,11.20
2018-03-02T03:47:25.536Z,9.90
2018-03-02T03:48:26.333Z,10.20
2018-03-02T03:49:25.449Z,10.50
2018-03-02T03:50:25.416Z,9.70
2018-03-02T03:51:25.400Z,9.60
2018-03-02T03:52:25.329Z,8.80
2018-03-02T03:53:25.334Z,10.00
2018-03-02T03:54:25.244Z,10.20
2018-03-02T03:55:25.230Z,10.50
2018-03-02T03:56:25.186Z,10.60
2018-03-02T03:57:25.196Z,9.60
2018-03-02T03:58:25.099Z,10.20
2018-03-02T03:59:25.122Z,10.30
2018-03-02T04:00:25.023Z,9.90
2018-03-02T04:01:24.987Z,9.60
2018-03-02T04:02:24.954Z,9.70
2018-03-02T04:03:24.902Z,10.20
2018-03-02T04:04:24.890Z,10.40
2018-03-02T04:05:24.857Z,9.70
2018-03-02T04:06:24.820Z,11.60
2018-03-02T04:07:24.761Z,9.80
2018-03-02T04:08:24.741Z,9.10
2018-03-02T04:09:24.710Z,9.80
2018-03-02T04:10:24.681Z,9.30
2018-03-02T04:11:24.630Z,10.40
2018-03-02T04:12:24.606Z,10.70
2018-03-02T04:13:24.548Z,9.60
2018-03-02T04:14:24.488Z,9.80
2018-03-02T04:15:24.482Z,10.00
2018-03-02T04:16:24.437Z,11.60
2018-03-02T04:17:24.395Z,10.20
2018-03-02T04:18:24.374Z,9.70
2018-03-02T04:19:24.322Z,8.90
2018-03-02T04:20:24.298Z,9.70
2018-03-02T04:21:24.260Z,10.90
2018-03-02T04:22:24.241Z,10.20
2018-03-02T04:23:24.175Z,9.40
2018-03-02T04:24:24.141Z,10.50
2018-03-02T04:25:24.116Z,10.70
2018-03-02T04:26:24.028Z,9.20
2018-03-02T04:27:24.020Z,10.90
2018-03-02T04:28:24.010Z,10.30
2018-03-02T04:29:23.938Z,9.00
2018-03-02T04:30:23.878Z,10.20
2018-03-02T04:31:23.879Z,10.50
2018-03-02T04:32:23.835Z,8.90
2018-03-02T04:33:23.797Z,10.20
2018-03-02T04:34:23.777Z,10.30
2018-03-02T04:35:23.740Z,10.50
2018-03-02T04:36:23.688Z,12.30
2018-03-02T04:37:23.654Z,9.80
2018-03-02T04:38:23.578Z,11.00
2018-03-02T04:39:23.535Z,10.10
2018-03-02T04:40:23.527Z,9.10
2018-03-02T04:41:23.472Z,10.20
2018-03-02T04:42:23.445Z,10.50
2018-03-02T04:43:23.425Z,11.10
2018-03-02T04:44:23.357Z,10.70
2018-03-02T04:45:23.352Z,9.10
2018-03-02T04:46:23.362Z,9.30
2018-03-02T04:47:23.236Z,10.10
2018-03-02T04:48:23.237Z,10.20
2018-03-02T04:49:23.162Z,9.80
2018-03-02T04:50:23.185Z,10.10
2018-03-02T04:51:23.095Z,9.00
2018-03-02T04:52:23.082Z,10.60
2018-03-02T04:53:23.063Z,8.50
2018-03-02T04:54:23.008Z,11.10
2018-03-02T04:55:22.945Z,9.20
2018-03-02T04:56:22.918Z,10.80
2018-03-02T04:57:22.917Z,11.20
2018-03-02T04:58:22.861Z,10.30
2018-03-02T04:59:22.830Z,9.70
2018-03-02T05:00:22.751Z,10.10
2018-03-02T05:01:22.741Z,9.50
2018-03-02T05:02:22.727Z,11.40
2018-03-02T05:03:22.672Z,10.20
2018-03-02T05:04:22.615Z,10.20
2018-03-02T05:05:22.576Z,11.20
2018-03-02T05:06:22.577Z,11.40
2018-03-02T05:07:22.513Z,10.00
2018-03-02T05:08:22.499Z,10.70
2018-03-02T05:09:22.436Z,10.00
2018-03-02T05:10:22.426Z,10.50
2018-03-02T05:11:22.332Z,9.90
2018-03-02T05:12:22.291Z,9.60
2018-03-02T05:13:22.326Z,10.80
2018-03-02T05:14:22.261Z,10.50
2018-03-02T05:15:22.173Z,9.70
2018-03-02T05:16:22.215Z,10.00
2018-03-02T05:17:22.144Z,9.50
2018-03-02T05:18:22.057Z,10.80
2018-03-02T05:19:22.035Z,10.50
2018-03-02T05:20:22.009Z,10.90
2018-03-02T05:21:21.959Z,10.30
2018-03-02T05:22:21.964Z,9.90
2018-03-02T05:23:21.903Z,10.40
2018-03-02T05:24:21.872Z,9.70
2018-03-02T05:25:21.877Z,10.50
2018-03-02T05:26:21.787Z,9.10
2018-03-02T05:27:21.725Z,9.80
2018-03-02T05:28:21.730Z,9.30
2018-03-02T05:29:21.644Z,10.60
2018-03-02T05:30:21.655Z,10.70
2018-03-02T05:31:21.622Z,9.60
2018-03-02T05:32:21.567Z,9.90
2018-03-02T05:33:21.529Z,10.70
2018-03-02T05:34:21.547Z,10.00
2018-03-02T05:35:21.458Z,10.60
2018-03-02T05:36:21.424Z,9.60
2018-03-02T05:37:21.372Z,10.00
2018-03-02T05:38:21.316Z,10.40
2018-03-02T05:39:21.312Z,11.10
2018-03-02T05:40:21.261Z,10.80
2018-03-02T05:41:21.198Z,10.60
2018-03-02T05:42:21.203Z,11.00
2018-03-02T05:43:21.135Z,11.10
2018-03-02T05:44:21.084Z,10.10
2018-03-02T05:45:21.047Z,10.20
2018-03-02T05:46:21.026Z,9.80
2018-03-02T05:47:20.957Z,10.30
2018-03-02T05:48:20.994Z,10.80
2018-03-02T05:49:20.912Z,9.80
2018-03-02T05:50:20.851Z,10.60
2018-03-02T05:51:20.828Z,8.90
2018-03-02T05:52:20.774Z,10.10
2018-03-02T05:53:20.740Z,10.70
2018-03-02T05:54:22.005Z,9.00
2018-03-02T05:55:21.354Z,10.30
2018-03-02T05:56:22.092Z,9.80
2018-03-02T05:57:20.595Z,9.60
2018-03-02T05:58:20.586Z,10.80
2018-03-02T05:59:20.537Z,10.00
2018-03-02T06:00:20.459Z,11.20
2018-03-02T06:01:20.609Z,9.80
2018-03-02T06:02:20.419Z,10.00
2018-03-02T06:03:20.380Z,10.60
2018-03-02T06:04:20.354Z,9.80
2018-03-02T06:05:20.297Z,10.70
2018-03-02T06:06:20.271Z,10.10
2018-03-02T06:07:20.214Z,10.40
2018-03-02T06:08:20.176Z,10.70
2018-03-02T06:09:20.124Z,10.90
2018-03-02T06:10:20.171Z,9.00
2018-03-02T06:11:20.074Z,9.90
2018-03-02T06:12:20.076Z,10.70
2018-03-02T06:13:19.983Z,10.30
2018-03-02T06:14:19.929Z,11.50
2018-03-02T06:15:19.972Z,10.40
2018-03-02T06:16:19.859Z,9.80
2018-03-02T06:17:19.858Z,10.30
2018-03-02T06:18:19.816Z,11.80
2018-03-02T06:19:19.840Z,9.90
2018-03-02T06:20:19.719Z,9.90
2018-03-02T06:21:19.707Z,11.70
2018-03-02T06:22:19.736Z,9.90
2018-03-02T06:23:19.584Z,11.30
2018-03-02T06:24:19.556Z,10.60
2018-03-02T06:25:19.547Z,10.90
2018-03-02T06:26:19.480Z,10.90
2018-03-02T06:27:19.449Z,10.40
2018-03-02T06:28:19.422Z,9.50
2018-03-02T06:29:19.350Z,9.60
2018-03-02T06:30:19.369Z,9.70
2018-03-02T06:31:19.292Z,10.40
2018-03-02T06:32:19.293Z,20.60
2018-03-02T06:33:19.289Z,10.90
2018-03-02T06:34:19.165Z,21.10
2018-03-02T06:35:19.162Z,18.20
2018-03-02T06:36:19.101Z,16.30
2018-03-02T06:37:19.048Z,23.50
2018-03-02T06:38:19.017Z,16.60
2018-03-02T06:39:18.978Z,11.40
2018-03-02T06:40:19.011Z,12.40
2018-03-02T06:41:18.899Z,11.00
2018-03-02T06:42:18.871Z,20.00
2018-03-02T06:43:18.827Z,10.90
2018-03-02T06:44:18.807Z,11.90
2018-03-02T06:45:18.788Z,14.70
2018-03-02T06:46:18.757Z,10.80
2018-03-02T06:47:18.673Z,11.20
2018-03-02T06:48:18.621Z,11.20
2018-03-02T06:49:18.618Z,12.90
2018-03-02T06:50:18.593Z,11.70
2018-03-02T06:51:18.538Z,18.90
2018-03-02T06:52:18.537Z,11.10
2018-03-02T06:53:18.450Z,10.80
2018-03-02T06:54:18.432Z,10.90
2018-03-02T06:55:18.381Z,15.60
2018-03-02T06:56:18.364Z,10.90
2018-03-02T06:57:18.288Z,11.50
2018-03-02T06:58:18.281Z,12.90
2018-03-02T06:59:18.213Z,12.40
2018-03-02T07:00:18.207Z,10.40
2018-03-02T07:01:18.162Z,14.90
2018-03-02T07:02:18.119Z,13.10
2018-03-02T07:03:18.120Z,12.30
2018-03-02T07:04:18.055Z,12.10
2018-03-02T07:05:17.995Z,11.70
2018-03-02T07:06:17.947Z,12.20
2018-03-02T07:07:17.910Z,12.20
2018-03-02T07:08:17.906Z,10.80
2018-03-02T07:09:17.860Z,11.10
2018-03-02T07:10:17.852Z,11.90
2018-03-02T07:11:17.909Z,10.60
2018-03-02T07:12:17.731Z,12.50
2018-03-02T07:13:17.720Z,10.90
2018-03-02T07:14:17.638Z,12.30
2018-03-02T07:15:17.606Z,11.20
2018-03-02T07:16:17.581Z,11.30
2018-03-02T07:17:17.543Z,10.60
2018-03-02T07:18:17.496Z,10.10
2018-03-02T07:19:17.574Z,10.10
2018-03-02T07:20:17.391Z,10.60
2018-03-02T07:21:17.396Z,11.60
2018-03-02T07:22:17.345Z,11.70
2018-03-02T07:23:17.304Z,9.90
2018-03-02T07:24:18.322Z,10.00
2018-03-02T07:25:17.251Z,10.90
2018-03-02T07:26:17.192Z,10.90
2018-03-02T07:27:17.172Z,12.00
2018-03-02T07:28:17.119Z,11.80
2018-03-02T07:29:17.103Z,10.90
2018-03-02T07:30:17.084Z,10.80
2018-03-02T07:31:17.042Z,10.80
2018-03-02T07:32:16.975Z,11.30
2018-03-02T07:33:16.934Z,10.30
2018-03-02T07:34:16.913Z,10.60
2018-03-02T07:35:16.847Z,11.00
2018-03-02T07:36:16.818Z,11.80
2018-03-02T07:37:16.771Z,10.50
2018-03-02T07:38:16.715Z,10.90
2018-03-02T07:39:16.720Z,12.40
2018-03-02T07:40:16.661Z,11.00
2018-03-02T07:41:16.662Z,11.00
2018-03-02T07:42:16.574Z,10.90
2018-03-02T07:43:16.532Z,11.00
2018-03-02T07:44:16.653Z,11.30
2018-03-02T07:45:16.539Z,11.10
2018-03-02T07:46:16.468Z,11.30
2018-03-02T07:47:16.404Z,11.50
2018-03-02T07:48:16.405Z,10.80
2018-03-02T07:49:16.321Z,10.60
2018-03-02T07:50:16.303Z,12.30
2018-03-02T07:51:16.234Z,12.00
2018-03-02T07:52:16.203Z,12.10
2018-03-02T07:53:16.160Z,11.50
2018-03-02T07:54:16.116Z,10.40
2018-03-02T07:55:16.106Z,11.00
2018-03-02T07:56:16.068Z,10.10
2018-03-02T07:57:16.050Z,29.70
2018-03-02T07:58:15.968Z,13.30
2018-03-02T07:59:15.961Z,11.80
2018-03-02T08:00:15.893Z,11.10
2018-03-02T08:01:15.839Z,12.50
2018-03-02T08:02:15.839Z,10.70
2018-03-02T08:03:15.791Z,11.00
2018-03-02T08:04:15.774Z,13.00
2018-03-02T08:05:15.926Z,11.80
2018-03-02T08:06:15.826Z,10.70
2018-03-02T08:07:15.632Z,10.40
2018-03-02T08:08:15.628Z,11.70
2018-03-02T08:09:15.604Z,11.50
2018-03-02T08:10:15.525Z,11.10
2018-03-02T08:11:15.461Z,13.00
2018-03-02T08:12:15.436Z,10.20
2018-03-02T08:13:15.429Z,11.80
2018-03-02T08:14:15.352Z,11.30
2018-03-02T08:15:15.505Z,13.10
2018-03-02T08:16:15.346Z,11.20
2018-03-02T08:17:15.227Z,14.20
2018-03-02T08:18:15.189Z,11.00
2018-03-02T08:19:15.178Z,10.90
2018-03-02T08:20:15.189Z,12.10
2018-03-02T08:21:15.093Z,12.70
2018-03-02T08:22:15.085Z,11.20
2018-03-02T08:23:15.022Z,12.10
2018-03-02T08:24:15.015Z,11.40
2018-03-02T08:25:15.153Z,11.30
2018-03-02T08:26:14.917Z,11.50
2018-03-02T08:27:14.912Z,11.30
2018-03-02T08:28:14.878Z,12.00
2018-03-02T08:29:14.855Z,11.00
2018-03-02T08:30:14.758Z,11.40
2018-03-02T08:31:14.749Z,10.80
2018-03-02T08:32:14.679Z,12.50
2018-03-02T08:33:14.674Z,11.40
2018-03-02T08:34:14.632Z,10.60
2018-03-02T08:35:14.607Z,11.60
2018-03-02T08:36:14.563Z,10.90
2018-03-02T08:37:14.477Z,11.80
2018-03-02T08:38:14.444Z,13.90
2018-03-02T08:39:14.482Z,11.70
2018-03-02T08:40:14.395Z,12.00
2018-03-02T08:41:14.378Z,11.60
2018-03-02T08:42:14.356Z,11.10
2018-03-02T08:43:14.260Z,11.50
2018-03-02T08:44:14.242Z,10.70
2018-03-02T08:45:14.234Z,11.60
2018-03-02T08:46:14.151Z,11.70
2018-03-02T08:47:14.131Z,10.30
2018-03-02T08:48:14.077Z,10.50
2018-03-02T08:49:14.080Z,12.90
2018-03-02T08:50:13.998Z,11.90
2018-03-02T08:51:13.965Z,10.10
2018-03-02T08:52:13.978Z,10.40
2018-03-02T08:53:13.939Z,10.90
2018-03-02T08:54:13.895Z,11.40
2018-03-02T08:55:13.847Z,10.80
2018-03-02T08:56:13.799Z,11.80
2018-03-02T08:57:13.814Z,11.60
2018-03-02T08:58:13.712Z,11.50
2018-03-02T08:59:13.698Z,11.80
2018-03-02T09:00:13.640Z,10.00
2018-03-02T09:01:13.638Z,11.80
2018-03-02T09:02:13.608Z,10.70
2018-03-02T09:03:13.553Z,11.80
2018-03-02T09:04:13.497Z,11.60
2018-03-02T09:05:13.441Z,13.40
2018-03-02T09:06:13.432Z,11.90
2018-03-02T09:07:13.386Z,9.70
2018-03-02T09:08:13.354Z,10.60
2018-03-02T09:09:13.321Z,10.60
2018-03-02T09:10:13.298Z,13.20
2018-03-02T09:11:13.201Z,11.00
2018-03-02T09:12:13.208Z,13.20
2018-03-02T09:13:13.136Z,12.90
2018-03-02T09:14:13.100Z,10.90
2018-03-02T09:15:13.073Z,11.30
2018-03-02T09:16:13.023Z,12.40
2018-03-02T09:17:12.994Z,10.40
2018-03-02T09:18:12.972Z,11.00
2018-03-02T09:19:12.927Z,12.10
2018-03-02T09:20:12.937Z,12.30
2018-03-02T09:21:12.841Z,13.40
2018-03-02T09:22:12.820Z,11.60
2018-03-02T09:23:12.780Z,11.40
2018-03-02T09:24:12.796Z,12.80
2018-03-02T09:25:12.754Z,11.20
2018-03-02T09:26:12.749Z,11.70
2018-03-02T09:27:12.649Z,10.90
2018-03-02T09:28:12.596Z,12.00
2018-03-02T09:29:12.588Z,12.20
2018-03-02T09:30:12.528Z,12.60
2018-03-02T09:31:12.489Z,11.60
2018-03-02T09:32:12.427Z,11.60
2018-03-02T09:33:12.436Z,12.00
2018-03-02T09:34:12.403Z,12.40
2018-03-02T09:35:12.328Z,12.10
2018-03-02T09:36:12.302Z,11.30
2018-03-02T09:37:12.248Z,10.70
2018-03-02T09:38:12.396Z,11.80
2018-03-02T09:39:12.204Z,11.00
2018-03-02T09:40:12.173Z,11.80
2018-03-02T09:41:12.145Z,12.10
2018-03-02T09:42:12.090Z,12.20
2018-03-02T09:43:12.083Z,11.60
2018-03-02T09:44:12.347Z,12.60
2018-03-02T09:45:12.031Z,11.00
2018-03-02T09:46:11.932Z,11.90
2018-03-02T09:47:11.889Z,11.50
2018-03-02T09:48:11.899Z,11.70
2018-03-02T09:49:11.824Z,12.00
2018-03-02T09:50:11.793Z,11.80
2018-03-02T09:51:11.763Z,11.80
2018-03-02T09:52:11.707Z,11.90
2018-03-02T09:53:11.701Z,12.90
2018-03-02T09:54:11.673Z,12.60
2018-03-02T09:55:11.607Z,11.20
2018-03-02T09:56:11.589Z,11.60
2018-03-02T09:57:11.543Z,11.40
2018-03-02T09:58:11.512Z,11.00
2018-03-02T09:59:11.475Z,13.10
2018-03-02T10:00:11.440Z,10.60
2018-03-02T10:01:11.394Z,11.80
2018-03-02T10:02:11.350Z,11.00
2018-03-02T10:03:11.336Z,11.50
2018-03-02T10:04:11.292Z,12.00
2018-03-02T10:05:11.272Z,11.80
2018-03-02T10:06:11.205Z,12.80
2018-03-02T10:07:11.166Z,12.00
2018-03-02T10:08:11.129Z,11.40
2018-03-02T10:09:11.127Z,12.80
2018-03-02T10:10:11.097Z,11.30
2018-03-02T10:11:11.043Z,11.50
2018-03-02T10:12:10.976Z,13.30
2018-03-02T10:13:10.948Z,11.40
2018-03-02T10:14:10.908Z,12.40
2018-03-02T10:15:10.971Z,12.60
2018-03-02T10:16:10.816Z,12.00
2018-03-02T10:17:10.833Z,12.00
2018-03-02T10:18:10.767Z,11.80
2018-03-02T10:19:10.729Z,12.30
2018-03-02T10:20:10.734Z,18.00
2018-03-02T10:21:10.686Z,27.30
2018-03-02T10:22:10.637Z,24.10
2018-03-02T10:23:10.601Z,12.60
2018-03-02T10:24:10.548Z,13.40
2018-03-02T10:25:10.496Z,12.30
2018-03-02T10:26:10.496Z,13.30
2018-03-02T10:27:10.440Z,12.20
2018-03-02T10:28:10.407Z,13.00
2018-03-02T10:29:10.377Z,12.00
2018-03-02T10:30:10.316Z,15.60
2018-03-02T10:31:10.311Z,12.40
2018-03-02T10:32:10.255Z,11.90
2018-03-02T10:33:10.244Z,15.20
2018-03-02T10:34:10.206Z,12.10
2018-03-02T10:35:10.159Z,12.80
2018-03-02T10:36:10.859Z,12.00
2018-03-02T10:37:10.069Z,13.20
2018-03-02T10:38:10.048Z,12.40
2018-03-02T10:39:09.994Z,12.60
2018-03-02T10:40:09.991Z,12.80
2018-03-02T10:41:09.978Z,15.20
2018-03-02T10:42:09.904Z,10.40
2018-03-02T10:43:09.862Z,13.40
2018-03-02T10:44:09.832Z,12.10
2018-03-02T10:45:09.793Z,16.30
2018-03-02T10:46:09.821Z,13.40
2018-03-02T10:47:09.718Z,20.20
2018-03-02T10:48:09.698Z,14.80
2018-03-02T10:49:09.647Z,13.00
2018-03-02T10:50:09.621Z,11.70
2018-03-02T10:51:09.599Z,11.30
2018-03-02T10:52:09.546Z,11.90
2018-03-02T10:53:09.528Z,12.50
2018-03-02T10:54:09.561Z,15.40
2018-03-02T10:55:09.446Z,13.00
2018-03-02T10:56:09.412Z,12.60
2018-03-02T10:57:09.420Z,12.10
2018-03-02T10:58:09.330Z,13.50
2018-03-02T10:59:09.306Z,13.00
2018-03-02T11:00:09.338Z,12.40
2018-03-02T11:01:09.294Z,13.20
2018-03-02T11:02:09.250Z,11.70
2018-03-02T11:03:10.112Z,13.20
2018-03-02T11:04:09.203Z,11.00
2018-03-02T11:05:09.194Z,12.30
2018-03-02T11:06:09.181Z,15.60
2018-03-02T11:07:09.874Z,13.70
2018-03-02T11:08:09.062Z,14.00
2018-03-02T11:09:08.944Z,12.70
2018-03-02T11:10:08.906Z,12.50
2018-03-02T11:11:08.946Z,12.50
2018-03-02T11:12:08.851Z,14.60
2018-03-02T11:13:08.843Z,14.60
2018-03-02T11:14:08.779Z,11.90
2018-03-02T11:15:08.751Z,14.30
2018-03-02T11:16:08.710Z,13.40
2018-03-02T11:17:08.673Z,13.10
2018-03-02T11:18:08.643Z,12.90
2018-03-02T11:19:08.621Z,12.20
2018-03-02T11:20:08.604Z,12.30
2018-03-02T11:21:08.524Z,13.20
2018-03-02T11:22:08.590Z,11.60
2018-03-02T11:23:08.518Z,13.60
2018-03-02T11:24:08.486Z,11.60
2018-03-02T11:25:08.459Z,13.80
2018-03-02T11:26:08.339Z,14.00
2018-03-02T11:27:08.324Z,12.70
2018-03-02T11:28:08.263Z,11.50
2018-03-02T11:29:08.378Z,11.40
2018-03-02T11:30:08.361Z,12.30
2018-03-02T11:31:08.497Z,11.80
2018-03-02T11:32:08.166Z,12.70
2018-03-02T11:33:08.110Z,12.40
2018-03-02T11:34:08.140Z,12.60
2018-03-02T11:35:08.070Z,14.60
2018-03-02T11:36:08.009Z,13.10
2018-03-02T11:37:07.987Z,12.70
2018-03-02T11:38:07.973Z,11.60
2018-03-02T11:39:07.952Z,13.80
2018-03-02T11:40:07.885Z,12.30
2018-03-02T11:41:07.805Z,12.70
2018-03-02T11:42:07.815Z,12.40
2018-03-02T11:43:07.760Z,12.40
2018-03-02T11:44:07.734Z,12.50
2018-03-02T11:45:07.726Z,12.50
2018-03-02T11:46:07.695Z,14.10
2018-03-02T11:47:07.660Z,13.40
2018-03-02T11:48:07.569Z,12.00
2018-03-02T11:49:07.561Z,12.70
2018-03-02T11:50:07.519Z,12.40
2018-03-02T11:51:07.484Z,12.40
2018-03-02T11:52:07.476Z,11.90
2018-03-02T11:53:07.460Z,12.60
2018-03-02T11:54:07.377Z,12.90
2018-03-02T11:55:07.347Z,12.10
2018-03-02T11:56:07.303Z,12.50
2018-03-02T11:57:07.284Z,12.30
2018-03-02T11:58:07.233Z,12.10
2018-03-02T11:59:07.247Z,14.20
2018-03-02T12:00:07.171Z,12.50
2018-03-02T12:01:07.133Z,12.30
2018-03-02T12:02:07.108Z,13.90
2018-03-02T12:03:07.079Z,11.60
2018-03-02T12:04:07.012Z,12.70
2018-03-02T12:05:06.975Z,12.10
2018-03-02T12:06:06.955Z,13.00
2018-03-02T12:07:06.920Z,11.60
2018-03-02T12:08:06.954Z,13.20
2018-03-02T12:09:06.846Z,13.10
2018-03-02T12:10:06.809Z,12.80
2018-03-02T12:11:06.793Z,12.60
2018-03-02T12:12:06.788Z,13.20
2018-03-02T12:13:06.762Z,13.90
2018-03-02T12:14:06.706Z,12.50
2018-03-02T12:15:06.662Z,12.50
2018-03-02T12:16:06.644Z,11.80
2018-03-02T12:17:06.572Z,11.30
2018-03-02T12:18:06.581Z,12.80
2018-03-02T12:19:06.566Z,12.80
2018-03-02T12:20:06.515Z,11.90
2018-03-02T12:21:06.443Z,12.00
2018-03-02T12:22:06.416Z,12.90
2018-03-02T12:23:06.365Z,12.40
2018-03-02T12:24:06.337Z,12.70
2018-03-02T12:25:06.306Z,13.70
2018-03-02T12:26:06.256Z,13.10
2018-03-02T12:27:06.238Z,13.50
2018-03-02T12:28:06.238Z,12.80
2018-03-02T12:29:06.181Z,12.70
2018-03-02T12:30:06.109Z,11.70
2018-03-02T12:31:06.205Z,12.70
2018-03-02T12:32:06.097Z,12.90
2018-03-02T12:33:06.024Z,13.60
2018-03-02T12:34:05.987Z,12.70
2018-03-02T12:35:05.970Z,12.50
2018-03-02T12:36:05.911Z,11.60
2018-03-02T12:37:05.886Z,13.10
2018-03-02T12:38:05.886Z,13.20
2018-03-02T12:39:05.802Z,12.30
2018-03-02T12:40:05.837Z,13.60
2018-03-02T12:41:05.812Z,13.80
2018-03-02T12:42:05.807Z,12.60
2018-03-02T12:43:05.672Z,13.80
2018-03-02T12:44:05.648Z,13.40
2018-03-02T12:45:05.624Z,13.00
2018-03-02T12:46:05.597Z,13.50
2018-03-02T12:47:05.578Z,14.40
2018-03-02T12:48:05.542Z,13.80
2018-03-02T12:49:05.468Z,14.30
2018-03-02T12:50:05.459Z,12.40
2018-03-02T12:51:05.433Z,12.80
2018-03-02T12:52:05.403Z,13.00
2018-03-02T12:53:05.354Z,13.70
2018-03-02T12:54:05.345Z,13.90
2018-03-02T12:55:05.285Z,14.00
2018-03-02T12:56:05.236Z,14.20
2018-03-02T12:57:05.242Z,13.70
2018-03-02T12:58:05.171Z,13.70
2018-03-02T12:59:05.130Z,14.10
2018-03-02T13:00:05.137Z,14.00
2018-03-02T13:01:05.055Z,14.70